Latest Weather Observations for Willis Island

IDQ60801

Issued at 1:32 pm EST Thursday 2 July 2015 (issued every 30 minutes, with the page automatically refreshed every 10 minutes)

About weather observations | Map of weather stations | Latest weather observations for QLD | Other Formats
Station Details ID: 200283 Name: WILLIS ISLAND Lat: -16.29 Lon: 149.97 Height: 9.29 m
Data from the previous 72 hours. | See also: Recent months at Willis Island
Date/Time
EST
Temp
°C
App
Temp
°C
Dew
Point
Rel
Hum
%
Delta-T
°C
Wind Press
QNH
hPa
Press
MSL
hPa
Rain
since 9 am
mm
Dir
 
Spd
km/h
Gust
km/h
Spd
kts
Gust
kts
02/01:30pm 25.7 21.1 18.1 63 4.8 SSE 39 48 21 26 1016.0 - 0.2
02/01:00pm 25.9 21.5 19.4 67 4.2 SSE 41 48 22 26 1016.2 - 0.2
02/12:30pm 25.9 21.1 18.3 63 4.8 SSE 41 50 22 27 1016.7 - 0.2
02/12:00pm 25.5 20.2 17.3 60 5.1 SSE 41 48 22 26 1017.2 1017.2 0.2
02/11:30am 25.8 20.2 16.4 56 5.8 SE 41 50 22 27 1017.4 - 0.2
02/11:00am 25.7 21.3 18.4 64 4.6 SSE 39 44 21 24 1017.8 - 0.2
02/10:30am 25.5 20.7 17.5 61 5.0 SSE 39 44 21 24 1018.0 - 0.2
02/10:00am 25.3 19.6 17.3 61 5.0 SSE 43 48 23 26 1018.1 - 0.2
02/09:30am 24.8 19.6 17.4 63 4.6 SE 41 50 22 27 1018.1 - 0.0
02/09:00am 24.8 20.4 18.5 68 4.0 SSE 39 46 21 25 1018.0 1018.0 0.4
02/08:30am 24.8 - 18.6 68 3.9 - - - - - 1018.1 - -
02/08:00am 24.6 19.6 17.9 66 4.2 SE 41 46 22 25 1018.1 - 0.4
02/07:30am 24.2 19.7 18.3 69 3.7 SE 39 46 21 25 1017.8 - 0.4
02/07:00am 23.8 18.8 17.9 69 3.7 SE 41 46 22 25 1017.4 - 0.4
02/06:30am 23.7 18.5 17.4 68 3.9 SE 41 48 22 26 1017.1 - 0.4
02/06:00am 23.5 17.9 17.5 69 3.7 SSE 43 50 23 27 1016.8 1016.8 0.4
02/05:30am 23.8 18.2 17.9 69 3.7 SSE 44 50 24 27 1016.5 - 0.4
02/05:00am 23.7 18.4 18.5 72 3.3 SSE 44 52 24 28 1016.2 - 0.4
02/04:30am 23.1 18.9 19.7 81 2.2 SE 41 52 22 28 1016.3 - 0.4
02/04:00am 23.7 19.7 19.3 76 2.8 SSE 39 46 21 25 1016.5 - 0.4
02/03:30am 23.3 18.3 18.9 76 2.8 SE 43 50 23 27 1016.4 - 0.4
02/03:00am 22.7 18.9 18.9 79 2.4 SSE 37 50 20 27 1016.4 1016.4 0.4
02/02:56am 22.9 19.1 18.9 78 2.5 SSE 37 50 20 27 1016.5 - 0.4
02/02:30am 23.9 21.1 19.4 76 2.9 SE 33 41 18 22 1016.4 - 0.4
02/02:00am 24.1 20.0 18.2 69 3.7 SSE 37 46 20 25 1016.6 - 0.4
02/01:30am 24.1 19.4 17.7 67 4.0 SE 39 44 21 24 1016.9 - 0.4
02/01:00am 24.1 19.6 18.2 69 3.7 SE 39 46 21 25 1017.3 - 0.4
02/12:30am 24.2 18.3 16.7 63 4.6 SE 43 50 23 27 1017.5 - 0.4
02/12:00am 23.9 19.6 19.5 76 2.8 SE 41 56 22 30 1017.6 1017.6 0.4
 
Date/Time
EST
Temp
°C
App
Temp
°C
Dew
Point
Rel
Hum
%
Delta-T
°C
Wind Press
QNH
hPa
Press
MSL
hPa
Rain
since 9 am
mm
Dir
 
Spd
km/h
Gust
km/h
Spd
kts
Gust
kts
01/11:30pm 24.4 20.8 18.5 69 3.7 SE 35 43 19 23 1017.6 - 0.4
01/11:00pm 24.2 20.3 17.8 67 4.0 SSE 35 44 19 24 1017.9 - 0.4
01/10:30pm 24.1 19.7 17.5 66 4.1 SE 37 44 20 24 1018.2 - 0.4
01/10:00pm 24.2 19.8 17.6 66 4.1 SSE 37 44 20 24 1018.4 - 0.4
01/09:30pm 24.2 19.7 18.3 69 3.7 SSE 39 44 21 24 1018.4 - 0.4
01/09:00pm 24.1 19.4 18.7 72 3.4 SE 41 46 22 25 1018.3 1018.3 0.4
01/08:30pm 24.1 19.8 18.7 72 3.4 SSE 39 48 21 26 1018.3 - 0.4
01/08:00pm 24.3 20.2 19.1 73 3.3 SSE 39 44 21 24 1017.9 - 0.4
01/07:30pm 24.3 19.4 19.1 73 3.3 SSE 43 50 23 27 1017.6 - 0.4
01/07:00pm 24.4 20.6 19.7 75 3.0 SSE 39 46 21 25 1017.2 - 0.4
01/06:30pm 24.3 19.9 19.3 73 3.2 SE 41 48 22 26 1016.8 - 0.4
01/06:00pm 24.4 21.0 18.9 71 3.5 SE 35 43 19 23 1016.6 1016.6 0.4
01/05:30pm 24.5 20.1 18.5 69 3.8 SE 39 44 21 24 1016.5 - 0.4
01/05:00pm 24.5 20.0 18.3 68 3.9 SE 39 44 21 24 1016.2 - 0.4
01/04:30pm 24.8 20.0 18.3 67 4.1 SE 41 48 22 26 1016.0 - 0.4
01/04:00pm 25.2 20.5 19.4 70 3.7 SE 43 50 23 27 1015.8 - 0.4
01/03:30pm 25.0 21.7 19.2 70 3.7 SE 35 44 19 24 1015.7 - 0.4
01/03:00pm 24.1 19.2 19.1 73 3.2 SE 43 54 23 29 1016.0 1016.0 0.4
01/02:30pm 25.6 21.6 18.5 65 4.5 SE 37 43 20 23 1016.1 - 0.4
01/02:00pm 25.8 21.7 19.1 66 4.3 SE 39 44 21 24 1016.2 - 0.2
01/01:30pm 26.2 22.0 19.0 64 4.6 SE 39 46 21 25 1016.4 - 0.2
01/01:00pm 26.1 21.0 18.5 63 4.8 SE 43 48 23 26 1016.7 - 0.2
01/12:30pm 25.3 20.6 18.7 67 4.2 SE 41 46 22 25 1017.2 - 0.2
01/12:00pm 25.3 22.1 19.5 70 3.7 SE 35 46 19 25 1017.5 1017.5 0.2
01/11:51am 24.1 20.8 19.2 74 3.1 ESE 35 41 19 22 1017.6 - 0.2
01/11:30am 24.3 20.7 20.1 77 2.7 SSE 39 46 21 25 1018.0 - 0.2
01/11:00am 26.2 22.4 19.7 67 4.2 SE 39 44 21 24 1018.2 - 0.0
01/10:30am 26.0 22.1 19.6 68 4.1 SE 39 46 21 25 1018.5 - 0.0
01/10:00am 25.6 22.1 19.7 70 3.8 SE 37 46 20 25 1018.7 - 0.0
01/09:30am 25.5 22.0 20.3 73 3.4 SSE 39 46 21 25 1018.8 - 0.0
01/09:00am 25.4 22.0 19.8 71 3.6 SE 37 43 20 23 1018.8 1018.8 1.0
01/08:30am 25.4 21.8 19.3 69 3.9 SSE 37 43 20 23 1018.6 - 1.0
01/08:00am 25.0 21.7 19.2 70 3.7 SSE 35 41 19 22 1018.4 - 1.0
01/07:30am 24.7 21.0 19.1 71 3.6 SE 37 43 20 23 1018.1 - 1.0
01/07:00am 24.5 20.6 18.8 70 3.6 SE 37 44 20 24 1017.7 - 1.0
01/06:30am 24.4 20.4 19.4 73 3.2 SE 39 44 21 24 1017.5 - 1.0
01/06:00am 24.5 21.4 19.7 74 3.1 SE 35 41 19 22 1017.3 1017.3 1.0
01/05:30am 24.6 21.4 19.5 73 3.3 SE 35 43 19 23 1017.1 - 0.8
01/05:00am 24.6 21.0 19.3 72 3.4 SE 37 41 20 22 1017.0 - 0.8
01/04:30am 24.6 21.3 19.3 72 3.4 SE 35 41 19 22 1016.9 - 0.8
01/04:00am 24.6 21.5 19.6 73 3.2 SE 35 41 19 22 1016.7 - 0.8
01/03:30am 24.0 22.8 20.9 83 2.0 SE 28 35 15 19 1016.6 - 0.8
01/03:00am 24.2 21.8 20.0 77 2.7 ESE 32 39 17 21 1016.5 1016.5 0.8
01/02:30am 24.0 20.6 20.6 81 2.2 ESE 39 44 21 24 1016.5 - 0.8
01/02:00am 24.1 22.0 21.0 83 2.0 E 33 43 18 23 1016.7 - 0.8
01/01:30am 23.7 19.5 20.5 82 2.1 E 43 46 23 25 1017.0 - 0.8
01/01:29am 23.8 19.9 20.4 81 2.2 E 41 46 22 25 1017.0 - 0.8
01/01:00am 24.6 21.4 19.5 73 3.3 ESE 35 43 19 23 1017.2 - 0.8
01/12:30am 24.6 21.3 20.0 75 3.0 SE 37 43 20 23 1017.4 - 0.8
01/12:00am 24.4 21.4 20.6 79 2.5 SE 37 43 20 23 1017.6 1017.6 0.8
 
Date/Time
EST
Temp
°C
App
Temp
°C
Dew
Point
Rel
Hum
%
Delta-T
°C
Wind Press
QNH
hPa
Press
MSL
hPa
Rain
since 9 am
mm
Dir
 
Spd
km/h
Gust
km/h
Spd
kts
Gust
kts
30/11:30pm 24.4 22.2 20.7 80 2.4 SE 33 39 18 21 1017.6 - 0.8
30/11:00pm 23.8 22.2 20.1 80 2.4 E 28 35 15 19 1017.8 - 0.8
30/10:43pm 23.3 19.7 20.2 83 2.0 E 39 44 21 24 1017.9 - 0.8
30/10:30pm 23.5 21.8 20.6 84 1.9 ESE 30 48 16 26 1018.1 - 0.8
30/10:29pm 23.9 22.6 20.7 82 2.1 SE 28 48 15 26 1018.1 - 0.8
30/10:00pm 24.1 21.1 19.9 77 2.7 SE 35 43 19 23 1018.3 - 0.8
30/09:30pm 23.9 21.9 20.8 83 2.0 SE 32 39 17 21 1018.4 - 0.8
30/09:00pm 24.0 21.0 19.8 77 2.7 SE 35 41 19 22 1018.2 1018.2 0.8
30/08:30pm 23.6 19.2 20.2 81 2.2 ESE 43 48 23 26 1018.1 - 0.8
30/08:00pm 24.0 20.8 20.3 80 2.4 SE 37 43 20 23 1017.8 - 0.8
30/07:42pm 23.6 21.4 20.8 84 1.8 ESE 33 37 18 20 1017.7 - 0.8
30/07:30pm 22.8 19.6 21.1 90 1.1 SSE 39 48 21 26 1017.7 - 0.8
30/07:20pm 23.8 21.0 21.1 85 1.8 SSE 37 48 20 26 1017.5 - 0.0
30/07:00pm 23.8 20.4 19.9 79 2.5 SE 37 44 20 24 1017.4 - 0.0
30/06:30pm 22.9 20.0 20.9 88 1.3 SE 37 46 20 25 1017.2 - 0.0
30/06:00pm 24.4 21.1 20.1 77 2.8 SE 37 44 20 24 1016.9 1016.9 0.0
30/05:30pm 24.4 20.9 19.6 74 3.1 ESE 37 43 20 23 1016.7 - 0.0
30/05:00pm 24.8 21.5 20.0 74 3.1 SE 37 44 20 24 1016.4 - 0.0
30/04:30pm 24.9 20.9 19.4 71 3.5 SE 39 44 21 24 1016.1 - 0.0
30/04:00pm 25.2 21.6 19.3 70 3.8 SE 37 43 20 23 1016.1 - 0.0
30/03:30pm 25.5 22.5 19.9 71 3.6 ESE 35 41 19 22 1015.9 - 0.0
30/03:00pm 25.6 22.0 19.4 68 4.0 ESE 37 44 20 24 1015.8 1015.8 0.0
30/02:30pm 25.1 21.3 19.8 72 3.4 SE 39 44 21 24 1015.9 - 0.0
30/02:00pm 25.5 21.6 19.6 70 3.8 SE 39 44 21 24 1016.0 - 0.0
30/01:30pm 25.7 21.9 19.7 69 3.9 ESE 39 46 21 25 1015.9 - 0.0
30/01:00pm 26.5 22.8 19.2 64 4.7 ESE 37 43 20 23 1016.3 - 0.0
30/12:30pm 26.2 22.5 19.2 65 4.5 ESE 37 44 20 24 1016.8 - 0.0
30/12:00pm 26.5 23.4 19.7 66 4.4 ESE 35 41 19 22 1017.1 1017.1 0.0
30/11:30am 26.0 21.8 18.8 64 4.6 ESE 39 46 21 25 1017.3 - 0.0
30/11:00am 26.0 22.2 19.8 68 4.0 ESE 39 46 21 25 1017.6 - 0.0
30/10:30am 26.0 21.9 19.1 65 4.4 ESE 39 44 21 24 1018.0 - 0.0
30/10:00am 26.0 21.9 19.1 65 4.4 ESE 39 44 21 24 1018.5 - 0.0
30/09:30am 25.2 20.1 18.7 67 4.1 ESE 43 50 23 27 1018.7 - 0.0
30/09:00am 25.7 21.5 18.8 65 4.4 ESE 39 46 21 25 1018.7 1018.7 8.6
30/08:30am 25.2 20.0 18.4 66 4.3 ESE 43 50 23 27 1018.5 - 8.6
30/08:00am 25.0 19.9 18.7 68 4.0 ESE 43 48 23 26 1018.1 - 8.6
30/07:30am 24.6 19.7 19.1 71 3.5 ESE 43 50 23 27 1017.7 - 8.6
30/07:00am 24.3 19.3 18.8 71 3.5 ESE 43 50 23 27 1017.5 - 8.6
30/06:30am 24.3 19.1 18.3 69 3.8 ESE 43 50 23 27 1017.0 - 8.6
30/06:00am 24.3 19.2 18.6 70 3.6 ESE 43 48 23 26 1016.9 1016.9 8.6
30/05:30am 24.4 20.1 19.6 74 3.1 ESE 41 46 22 25 1016.7 - 8.6
30/05:00am 24.3 19.0 18.6 70 3.6 ESE 44 52 24 28 1016.5 - 8.6
30/04:30am 24.3 19.7 19.6 75 3.0 ESE 43 50 23 27 1016.5 - 8.6
30/04:00am 24.4 19.6 19.6 74 3.1 ESE 44 50 24 27 1016.4 - 8.6
30/03:30am 24.4 19.3 19.1 72 3.4 ESE 44 52 24 28 1016.4 - 8.6
30/03:00am 24.5 19.6 19.5 73 3.2 ESE 44 52 24 28 1016.4 1016.4 8.6
30/02:30am 24.4 19.6 19.7 75 3.0 ESE 44 54 24 29 1016.4 - 8.6
30/02:00am 24.4 19.1 19.4 73 3.2 ESE 46 52 25 28 1016.5 - 8.6
30/01:30am 24.4 20.2 19.7 75 3.0 ESE 41 48 22 26 1016.7 - 8.6
30/01:08am 24.3 19.3 19.3 73 3.2 ESE 44 63 24 34 1016.8 - 8.6
30/01:00am 24.2 19.5 19.9 77 2.8 ESE 44 52 24 28 1016.9 - 8.6
30/12:30am 24.5 19.8 19.8 75 3.0 E 44 54 24 29 1017.0 - 8.6
30/12:00am 24.6 20.0 19.6 73 3.2 E 43 52 23 28 1017.1 1017.1 8.6
 
Date/Time
EST
Temp
°C
App
Temp
°C
Dew
Point
Rel
Hum
%
Delta-T
°C
Wind Press
QNH
hPa
Press
MSL
hPa
Rain
since 9 am
mm
Dir
 
Spd
km/h
Gust
km/h
Spd
kts
Gust
kts
29/11:30pm 24.6 19.6 18.9 70 3.6 E 43 50 23 27 1017.2 - 8.6
29/11:00pm 24.6 20.3 20.3 77 2.8 E 43 50 23 27 1017.3 - 8.6
29/10:30pm 24.8 20.0 19.3 71 3.5 E 43 50 23 27 1017.5 - 8.6
29/10:00pm 24.7 20.1 19.7 73 3.2 E 43 50 23 27 1017.6 - 8.6
29/09:30pm 24.8 21.0 20.5 77 2.8 E 41 46 22 25 1017.7 - 8.6
29/09:00pm 24.8 20.3 20.0 74 3.1 E 43 50 23 27 1017.6 1017.6 8.2
29/08:30pm 24.7 20.7 20.2 76 2.9 E 41 48 22 26 1017.6 - 8.2
29/08:00pm 24.8 19.8 19.3 71 3.5 E 44 52 24 28 1017.4 - 8.2
29/07:30pm 24.8 20.5 20.3 76 2.9 E 43 48 23 26 1017.2 - 8.2
29/07:00pm 24.7 19.8 19.4 72 3.4 E 44 50 24 27 1016.8 - 8.2
29/06:30pm 24.7 19.3 19.1 71 3.6 ESE 46 54 25 29 1016.4 - 8.2
29/06:00pm 24.6 19.3 19.5 73 3.3 ESE 46 54 25 29 1016.3 1016.3 8.2
29/05:30pm 24.6 19.3 19.5 73 3.3 ESE 46 56 25 30 1016.1 - 8.2
29/05:00pm 24.8 19.4 19.3 71 3.5 E 46 56 25 30 1016.0 - 8.2
29/04:30pm 24.8 19.7 19.8 74 3.2 ESE 46 56 25 30 1015.9 - 8.2
29/04:00pm 24.4 19.7 19.9 76 2.9 ESE 44 54 24 29 1016.0 - 8.2
29/03:30pm 23.2 20.9 21.2 88 1.3 ESE 35 41 19 22 1016.0 - 8.2
29/03:00pm 21.5 17.1 21.3 99 0.1 E 46 65 25 35 1016.4 1016.4 7.2
29/02:30pm 21.5 16.2 21.0 97 0.3 E 50 69 27 37 1016.4 - 3.4
29/02:29pm 23.0 18.8 21.6 92 0.9 E 46 69 25 37 1016.3 - 2.6
29/02:00pm 23.1 19.3 21.6 91 1.0 ESE 44 59 24 32 1016.7 - 2.4
29/01:54pm 23.0 19.6 21.3 90 1.1 ESE 41 59 22 32 1016.7 - 2.0

Other Formats:

Comma delimited format used in spreadsheet applications
http://www.bom.gov.au/fwo/IDQ60801/IDQ60801.94299.axf

JavaScript Object Notation format (JSON) in row-major order
http://www.bom.gov.au/fwo/IDQ60801/IDQ60801.94299.json